Time;durP1;ratioP1;P1;durP2;ratioP2;P2;SDS_P1;SDS_P2;PMS_P1;PMS_P2;Temp;Humidity;BMP_temperature;BMP_pressure;BME280_temperature;BME280_humidity;BME280_pressure;Samples;Min_cycle;Max_cycle;Signal;HPM_P1;HPM_P2
2021/03/17 00:00:36;;;;;;;13.25;7.45;;;;;;;;;;5055537;28;20476;-43
2021/03/17 00:03:02;;;;;;;16.63;6.75;;;;;;;;;;5060000;28;20054;-43
2021/03/17 00:05:33;;;;;;;12.25;6.25;;;;;;;;;;5059479;28;20112;-43
2021/03/17 00:07:59;;;;;;;10.13;5.65;;;;;;;;;;5068769;28;20035;-43
2021/03/17 00:10:26;;;;;;;11.20;6.25;;;;;;;;;;5064313;28;20440;-44
2021/03/17 00:12:53;;;;;;;12.85;6.47;;;;;;;;;;5075233;28;20028;-43
2021/03/17 00:15:29;;;;;;;9.48;5.40;;;;;;;;;;5074815;28;20021;-44
2021/03/17 00:17:55;;;;;;;9.05;5.85;;;;;;;;;;5074993;28;20032;-43
2021/03/17 00:20:23;;;;;;;10.13;4.97;;;;;;;;;;5064160;28;20098;-44
2021/03/17 00:22:50;;;;;;;9.70;5.70;;;;;;;;;;5067686;28;20044;-43
2021/03/17 00:25:17;;;;;;;12.25;5.45;;;;;;;;;;5066572;28;20024;-44
2021/03/17 00:27:43;;;;;;;12.50;5.07;;;;;;;;;;5066958;28;20033;-43
2021/03/17 00:30:09;;;;;;;10.07;5.15;;;;;;;;;;5063204;28;20036;-44
2021/03/17 00:32:35;;;;;;;10.45;5.65;;;;;;;;;;5068470;28;20032;-43
2021/03/17 00:35:01;;;;;;;9.77;5.57;;;;;;;;;;5074001;28;20437;-45
2021/03/17 00:37:27;;;;;;;13.02;5.90;;;;;;;;;;5059494;28;20040;-44
2021/03/17 00:39:53;;;;;;;11.75;5.82;;;;;;;;;;5055120;28;20507;-43
2021/03/17 00:42:19;;;;;;;10.20;5.72;;;;;;;;;;5062990;28;20028;-44
2021/03/17 00:44:45;;;;;;;12.55;6.57;;;;;;;;;;5066301;28;20109;-42
2021/03/17 00:47:11;;;;;;;10.70;5.45;;;;;;;;;;5056354;28;20078;-44
2021/03/17 00:49:37;;;;;;;15.55;6.57;;;;;;;;;;5066196;28;20035;-43
2021/03/17 00:52:03;;;;;;;15.27;6.70;;;;;;;;;;5069725;28;20059;-44
2021/03/17 00:54:29;;;;;;;12.32;5.97;;;;;;;;;;5054473;28;20028;-43
2021/03/17 00:56:55;;;;;;;11.10;6.20;;;;;;;;;;5058654;28;20021;-44
2021/03/17 00:59:21;;;;;;;12.63;5.75;;;;;;;;;;5060681;28;20075;-45
2021/03/17 01:01:47;;;;;;;13.60;6.90;;;;;;;;;;5058278;28;20032;-43
2021/03/17 01:04:13;;;;;;;13.05;6.38;;;;;;;;;;5062646;28;20411;-43
2021/03/17 01:06:39;;;;;;;9.73;6.43;;;;;;;;;;5059702;28;20586;-43
2021/03/17 01:09:05;;;;;;;12.93;6.32;;;;;;;;;;5054010;28;20384;-42
2021/03/17 01:11:31;;;;;;;12.95;6.60;;;;;;;;;;5066865;28;20550;-43
2021/03/17 01:13:57;;;;;;;13.27;7.15;;;;;;;;;;5061198;28;20063;-43
2021/03/17 01:16:23;;;;;;;10.38;6.50;;;;;;;;;;5068496;28;20052;-44
2021/03/17 01:18:50;;;;;;;17.98;6.57;;;;;;;;;;5065495;28;20479;-45
2021/03/17 01:21:16;;;;;;;11.55;6.30;;;;;;;;;;5073942;28;20341;-44
2021/03/17 01:23:41;;;;;;;13.40;7.13;;;;;;;;;;5071601;28;20058;-45
2021/03/17 01:26:07;;;;;;;10.50;6.15;;;;;;;;;;5055622;28;20040;-44
2021/03/17 01:28:33;;;;;;;10.27;6.65;;;;;;;;;;5065436;28;20039;-44
2021/03/17 01:31:00;;;;;;;12.73;6.20;;;;;;;;;;5055357;28;20025;-45
2021/03/17 01:33:27;;;;;;;9.73;6.30;;;;;;;;;;5053831;28;20177;-47
2021/03/17 01:35:53;;;;;;;14.68;6.25;;;;;;;;;;5057968;28;20124;-43
2021/03/17 01:38:19;;;;;;;12.18;6.35;;;;;;;;;;5073347;28;20558;-43
2021/03/17 01:40:46;;;;;;;12.35;6.22;;;;;;;;;;5054779;28;20064;-43
2021/03/17 01:43:12;;;;;;;12.02;6.65;;;;;;;;;;5057173;28;20578;-44
2021/03/17 01:45:38;;;;;;;13.30;7.15;;;;;;;;;;5053285;28;20029;-44
2021/03/17 01:48:05;;;;;;;10.70;6.03;;;;;;;;;;5054448;28;20033;-43
2021/03/17 01:50:33;;;;;;;9.98;6.10;;;;;;;;;;5063008;28;20080;-43
2021/03/17 01:53:02;;;;;;;14.13;6.60;;;;;;;;;;5053363;28;20075;-43
2021/03/17 01:55:28;;;;;;;13.50;6.38;;;;;;;;;;5053224;28;20027;-44
2021/03/17 01:57:54;;;;;;;11.63;6.80;;;;;;;;;;5053578;28;20017;-43
2021/03/17 02:00:20;;;;;;;12.35;6.78;;;;;;;;;;5052733;28;20037;-45
2021/03/17 02:02:50;;;;;;;9.55;6.20;;;;;;;;;;5061641;28;20158;-44
2021/03/17 02:05:20;;;;;;;12.13;6.25;;;;;;;;;;5054277;28;20029;-45
2021/03/17 02:07:46;;;;;;;8.68;5.18;;;;;;;;;;5053151;28;20036;-44
2021/03/17 02:10:14;;;;;;;15.27;5.90;;;;;;;;;;5059899;28;20020;-44
2021/03/17 02:12:49;;;;;;;9.40;6.35;;;;;;;;;;5058529;28;20040;-44
2021/03/17 02:15:22;;;;;;;10.55;5.78;;;;;;;;;;5062717;28;20037;-43
2021/03/17 02:17:48;;;;;;;;;;;;;;;;;;5053498;28;20506;-45
2021/03/17 02:20:20;;;;;;;9.43;5.97;;;;;;;;;;5055711;28;19912;-43
2021/03/17 02:22:58;;;;;;;11.52;6.00;;;;;;;;;;5053008;28;20025;-43
2021/03/17 02:25:42;;;;;;;12.00;6.30;;;;;;;;;;5068134;28;20400;-44
2021/03/17 02:28:08;;;;;;;12.13;5.93;;;;;;;;;;5052841;28;20524;-44
2021/03/17 02:30:43;;;;;;;11.18;5.63;;;;;;;;;;5056292;28;20042;-43
2021/03/17 02:33:35;;;;;;;9.98;5.68;;;;;;;;;;5062108;28;20547;-43
2021/03/17 02:36:11;;;;;;;14.05;5.47;;;;;;;;;;5058992;28;20020;-43
2021/03/17 02:38:37;;;;;;;11.05;5.03;;;;;;;;;;5057569;28;20032;-43
2021/03/17 02:41:05;;;;;;;11.43;5.15;;;;;;;;;;5056830;28;20024;-45
2021/03/17 02:43:35;;;;;;;12.02;5.57;;;;;;;;;;5058442;28;20049;-44
2021/03/17 02:46:05;;;;;;;10.70;5.18;;;;;;;;;;5064028;28;20379;-43
2021/03/17 02:48:32;;;;;;;10.18;5.22;;;;;;;;;;5067900;28;20036;-43
2021/03/17 02:51:02;;;;;;;11.63;5.35;;;;;;;;;;5063246;28;20114;-42
2021/03/17 02:53:28;;;;;;;11.50;5.45;;;;;;;;;;5058323;28;20024;-43
2021/03/17 02:56:06;;;;;;;9.40;5.30;;;;;;;;;;5072394;28;20051;-44
2021/03/17 02:58:34;;;;;;;7.90;5.13;;;;;;;;;;5065543;28;20027;-44
2021/03/17 03:01:01;;;;;;;10.80;5.40;;;;;;;;;;5055629;28;20116;-43
2021/03/17 03:03:29;;;;;;;9.10;5.15;;;;;;;;;;5054518;28;20127;-45
2021/03/17 03:05:56;;;;;;;10.95;5.18;;;;;;;;;;5060311;28;20112;-47
2021/03/17 03:08:23;;;;;;;10.80;5.20;;;;;;;;;;5068766;28;20475;-45
2021/03/17 03:10:50;;;;;;;8.98;5.32;;;;;;;;;;5070036;28;20095;-44
2021/03/17 03:13:16;;;;;;;7.95;4.63;;;;;;;;;;5064875;28;20032;-44
2021/03/17 03:15:43;;;;;;;12.07;5.07;;;;;;;;;;5072847;28;20036;-43
2021/03/17 03:18:11;;;;;;;8.63;5.18;;;;;;;;;;5065292;28;20029;-44
2021/03/17 03:20:37;;;;;;;10.55;4.47;;;;;;;;;;5064734;28;20028;-44
2021/03/17 03:23:03;;;;;;;8.80;4.82;;;;;;;;;;5056778;28;20051;-43
2021/03/17 03:25:30;;;;;;;9.95;5.40;;;;;;;;;;5062230;28;20356;-44
2021/03/17 03:27:56;;;;;;;9.05;4.65;;;;;;;;;;5055958;28;20020;-43
2021/03/17 03:30:27;;;;;;;7.28;5.07;;;;;;;;;;5069848;28;20047;-43
2021/03/17 03:32:53;;;;;;;12.23;5.35;;;;;;;;;;5062612;28;20024;-43
2021/03/17 03:35:21;;;;;;;8.32;4.80;;;;;;;;;;5058666;28;20029;-44
2021/03/17 03:37:47;;;;;;;13.10;4.90;;;;;;;;;;5063821;28;20107;-44
2021/03/17 03:40:15;;;;;;;11.85;5.20;;;;;;;;;;5075555;28;20399;-43
2021/03/17 03:42:42;;;;;;;10.70;4.95;;;;;;;;;;5073622;28;20213;-44
2021/03/17 03:45:09;;;;;;;9.65;5.07;;;;;;;;;;5067805;28;20063;-43
2021/03/17 03:47:35;;;;;;;7.30;4.75;;;;;;;;;;5055996;28;20671;-45
2021/03/17 03:50:01;;;;;;;10.40;5.38;;;;;;;;;;5057063;28;20106;-43
2021/03/17 03:52:35;;;;;;;10.00;4.53;;;;;;;;;;5074414;28;20103;-43
2021/03/17 03:55:00;;;;;;;;;;;;;;;;;;5075842;28;20121;-44
2021/03/17 03:57:33;;;;;;;7.75;4.45;;;;;;;;;;5070910;28;19944;-43
2021/03/17 04:00:06;;;;;;;13.30;4.07;;;;;;;;;;5075567;28;20021;-42
2021/03/17 04:02:32;;;;;;;;;;;;;;;;;;5060787;28;20040;-43
2021/03/17 04:04:59;;;;;;;12.57;4.30;;;;;;;;;;5056137;28;19904;-42
2021/03/17 04:07:26;;;;;;;10.95;3.70;;;;;;;;;;5055178;28;20029;-42
2021/03/17 04:09:53;;;;;;;15.30;4.85;;;;;;;;;;5060080;28;20040;-43
2021/03/17 04:12:21;;;;;;;14.55;4.40;;;;;;;;;;5064256;28;20421;-43
2021/03/17 04:14:49;;;;;;;13.05;3.67;;;;;;;;;;5061570;28;20135;-45
2021/03/17 04:17:20;;;;;;;6.50;3.30;;;;;;;;;;5075429;28;20031;-42
2021/03/17 04:19:48;;;;;;;6.90;3.10;;;;;;;;;;5055594;28;20024;-43
2021/03/17 04:22:15;;;;;;;8.98;3.10;;;;;;;;;;5055568;28;20425;-43
2021/03/17 04:24:42;;;;;;;9.07;3.63;;;;;;;;;;5054754;28;20096;-43
2021/03/17 04:27:09;;;;;;;12.45;3.40;;;;;;;;;;5055402;28;20017;-43
2021/03/17 04:29:35;;;;;;;6.55;3.33;;;;;;;;;;5054954;28;20112;-43
2021/03/17 04:32:02;;;;;;;7.65;3.15;;;;;;;;;;5073760;28;20028;-43
2021/03/17 04:34:28;;;;;;;14.43;2.75;;;;;;;;;;5055030;28;20025;-42
2021/03/17 04:36:55;;;;;;;7.03;2.70;;;;;;;;;;5055708;28;20121;-45
2021/03/17 04:39:21;;;;;;;8.18;3.25;;;;;;;;;;5065703;28;20455;-43
2021/03/17 04:41:48;;;;;;;7.05;2.80;;;;;;;;;;5054880;28;20107;-44
2021/03/17 04:44:14;;;;;;;9.00;2.90;;;;;;;;;;5070156;28;20025;-44
2021/03/17 04:46:41;;;;;;;4.82;2.50;;;;;;;;;;5061246;28;20455;-43
2021/03/17 04:49:08;;;;;;;10.93;2.47;;;;;;;;;;5069570;28;20120;-43
2021/03/17 04:51:35;;;;;;;6.32;2.35;;;;;;;;;;5066310;28;20048;-43
2021/03/17 04:54:01;;;;;;;9.70;2.50;;;;;;;;;;5054582;28;20056;-43
2021/03/17 04:56:28;;;;;;;7.25;2.50;;;;;;;;;;5062829;28;20056;-42
2021/03/17 04:58:54;;;;;;;8.48;2.58;;;;;;;;;;5066738;28;20159;-43
2021/03/17 05:01:20;;;;;;;13.10;2.85;;;;;;;;;;5068136;28;20029;-43
2021/03/17 05:03:48;;;;;;;9.30;2.45;;;;;;;;;;5062800;28;20540;-44
2021/03/17 05:06:14;;;;;;;11.90;3.15;;;;;;;;;;5055437;28;20043;-42
2021/03/17 05:08:42;;;;;;;8.05;2.00;;;;;;;;;;5054419;28;20021;-43
2021/03/17 05:11:09;;;;;;;6.40;2.60;;;;;;;;;;5057845;28;20037;-43
2021/03/17 05:13:36;;;;;;;10.15;2.63;;;;;;;;;;5068681;28;20116;-42
2021/03/17 05:16:02;;;;;;;9.75;2.45;;;;;;;;;;5060781;28;20523;-43
2021/03/17 05:18:29;;;;;;;11.40;2.55;;;;;;;;;;5068341;28;20027;-43
2021/03/17 05:20:55;;;;;;;8.43;2.38;;;;;;;;;;5073321;28;20361;-43
2021/03/17 05:23:21;;;;;;;11.68;2.95;;;;;;;;;;5063532;28;20033;-42
2021/03/17 05:25:48;;;;;;;8.43;2.55;;;;;;;;;;5066439;28;20111;-44
2021/03/17 05:28:15;;;;;;;9.52;2.33;;;;;;;;;;5064155;28;20391;-45
2021/03/17 05:30:42;;;;;;;11.68;2.53;;;;;;;;;;5073317;28;20082;-44
2021/03/17 05:33:09;;;;;;;6.72;2.53;;;;;;;;;;5053740;28;20071;-45
2021/03/17 05:35:36;;;;;;;8.43;3.13;;;;;;;;;;5053028;28;20017;-43
2021/03/17 05:38:02;;;;;;;6.85;2.15;;;;;;;;;;5053818;28;20023;-43
2021/03/17 05:40:29;;;;;;;8.00;2.28;;;;;;;;;;5056947;28;20108;-43
2021/03/17 05:42:55;;;;;;;11.48;2.70;;;;;;;;;;5055203;28;20033;-43
2021/03/17 05:45:22;;;;;;;13.43;2.67;;;;;;;;;;5054340;28;20025;-43
2021/03/17 05:47:50;;;;;;;8.18;2.78;;;;;;;;;;5069708;28;20333;-42
2021/03/17 05:50:20;;;;;;;10.88;3.00;;;;;;;;;;5063049;28;20500;-42
2021/03/17 05:52:46;;;;;;;9.05;3.22;;;;;;;;;;5063472;28;20016;-42
2021/03/17 05:55:13;;;;;;;6.10;2.80;;;;;;;;;;5053847;28;20415;-43
2021/03/17 05:57:40;;;;;;;11.95;3.45;;;;;;;;;;5064212;28;20138;-43
2021/03/17 06:00:10;;;;;;;8.13;3.00;;;;;;;;;;5060491;28;20062;-42
2021/03/17 06:02:37;;;;;;;7.68;3.35;;;;;;;;;;5061115;28;20033;-44
2021/03/17 06:05:04;;;;;;;11.00;3.00;;;;;;;;;;5057782;28;20116;-43
2021/03/17 06:07:33;;;;;;;7.05;3.03;;;;;;;;;;5053028;28;20488;-44
2021/03/17 06:10:02;;;;;;;14.18;4.15;;;;;;;;;;5058619;28;20537;-44
2021/03/17 06:12:29;;;;;;;10.80;3.70;;;;;;;;;;5062511;28;20048;-43
2021/03/17 06:14:55;;;;;;;13.77;3.75;;;;;;;;;;5061699;28;20116;-42
2021/03/17 06:17:23;;;;;;;14.43;4.05;;;;;;;;;;5063240;28;20111;-43
2021/03/17 06:19:53;;;;;;;15.50;4.70;;;;;;;;;;5057636;28;20472;-42
2021/03/17 06:22:20;;;;;;;10.63;6.25;;;;;;;;;;5063481;28;20116;-43
2021/03/17 06:24:46;;;;;;;17.35;6.10;;;;;;;;;;5052769;28;20120;-43
2021/03/17 06:27:13;;;;;;;13.18;5.70;;;;;;;;;;5070136;28;20028;-43
2021/03/17 06:29:39;;;;;;;17.42;5.43;;;;;;;;;;5067742;28;20426;-43
2021/03/17 06:32:06;;;;;;;19.20;5.68;;;;;;;;;;5065733;28;20113;-42
2021/03/17 06:34:32;;;;;;;13.30;5.90;;;;;;;;;;5065364;28;20070;-43
2021/03/17 06:36:58;;;;;;;15.43;5.78;;;;;;;;;;5057058;28;20582;-44
2021/03/17 06:39:24;;;;;;;16.88;6.32;;;;;;;;;;5061873;28;20021;-43
2021/03/17 06:41:51;;;;;;;13.40;5.70;;;;;;;;;;5068044;28;20059;-44
2021/03/17 06:44:27;;;;;;;18.85;6.32;;;;;;;;;;5059012;28;20040;-42
2021/03/17 06:47:12;;;;;;;12.88;5.72;;;;;;;;;;5062592;28;20033;-44
2021/03/17 06:49:39;;;;;;;14.88;5.35;;;;;;;;;;5071843;28;20032;-46
2021/03/17 06:52:37;;;;;;;23.02;6.20;;;;;;;;;;5060474;28;20044;-43
2021/03/17 06:55:10;;;;;;;17.25;6.60;;;;;;;;;;5060823;28;20033;-44
2021/03/17 06:57:37;;;;;;;18.00;6.93;;;;;;;;;;5059431;28;20020;-43
2021/03/17 07:00:22;;;;;;;18.38;6.45;;;;;;;;;;5062774;28;20025;-43
2021/03/17 07:02:52;;;;;;;17.77;7.65;;;;;;;;;;5056381;28;20112;-44
2021/03/17 07:05:18;;;;;;;26.42;8.35;;;;;;;;;;5063528;28;20095;-44
2021/03/17 07:07:48;;;;;;;19.83;7.32;;;;;;;;;;5063500;28;20024;-43
2021/03/17 07:10:25;;;;;;;16.58;7.05;;;;;;;;;;5065393;28;20033;-44
2021/03/17 07:12:55;;;;;;;15.63;6.78;;;;;;;;;;5052085;28;20029;-43
2021/03/17 07:15:22;;;;;;;16.52;7.22;;;;;;;;;;5067518;28;20025;-42
2021/03/17 07:17:48;;;;;;;18.48;7.10;;;;;;;;;;5052274;28;20067;-43
2021/03/17 07:20:14;;;;;;;18.30;7.10;;;;;;;;;;5055270;28;20032;-42
2021/03/17 07:22:40;;;;;;;19.00;7.55;;;;;;;;;;5061587;28;20079;-45
2021/03/17 07:25:06;;;;;;;17.52;7.00;;;;;;;;;;5062240;28;20404;-44
2021/03/17 07:27:33;;;;;;;20.63;9.48;;;;;;;;;;5066128;28;20085;-43
2021/03/17 07:29:59;;;;;;;16.27;7.88;;;;;;;;;;5068227;28;20029;-43
2021/03/17 07:32:25;;;;;;;13.73;8.32;;;;;;;;;;5065506;28;20032;-43
2021/03/17 07:34:51;;;;;;;17.40;6.82;;;;;;;;;;5070492;28;20112;-44
2021/03/17 07:37:17;;;;;;;15.57;7.22;;;;;;;;;;5054797;28;20137;-42
2021/03/17 07:39:43;;;;;;;17.77;7.68;;;;;;;;;;5065916;28;20021;-43
2021/03/17 07:42:13;;;;;;;19.98;7.70;;;;;;;;;;5065232;28;20537;-43
2021/03/17 07:44:41;;;;;;;19.20;7.78;;;;;;;;;;5062120;28;20039;-43
2021/03/17 07:47:11;;;;;;;17.92;7.75;;;;;;;;;;5063158;28;20484;-42
2021/03/17 07:49:39;;;;;;;18.50;8.48;;;;;;;;;;5059879;28;20060;-45
2021/03/17 07:52:06;;;;;;;20.50;9.38;;;;;;;;;;5053943;28;20037;-43
2021/03/17 07:54:36;;;;;;;17.58;7.93;;;;;;;;;;5053902;28;20089;-43
2021/03/17 07:57:04;;;;;;;14.85;7.47;;;;;;;;;;5050895;28;20060;-42
2021/03/17 07:59:30;;;;;;;19.40;8.45;;;;;;;;;;5063172;28;20029;-44
2021/03/17 08:01:57;;;;;;;16.38;6.82;;;;;;;;;;5056920;28;20457;-42
2021/03/17 08:04:42;;;;;;;15.20;7.50;;;;;;;;;;5056990;28;20747;-43
2021/03/17 08:07:08;;;;;;;17.58;7.38;;;;;;;;;;5055487;28;20376;-43
2021/03/17 08:09:34;;;;;;;15.95;7.80;;;;;;;;;;5063937;28;20021;-43
2021/03/17 08:12:02;;;;;;;15.77;7.57;;;;;;;;;;5068631;28;20033;-42
2021/03/17 08:14:28;;;;;;;24.55;9.38;;;;;;;;;;5062262;28;20033;-43
2021/03/17 08:16:54;;;;;;;13.05;7.40;;;;;;;;;;5060618;28;20068;-45
2021/03/17 08:19:27;;;;;;;15.95;7.20;;;;;;;;;;5066000;28;20419;-43
2021/03/17 08:21:56;;;;;;;16.15;7.10;;;;;;;;;;5067905;28;20040;-43
2021/03/17 08:24:40;;;;;;;14.93;6.97;;;;;;;;;;5061701;28;20053;-42
2021/03/17 08:27:06;;;;;;;18.77;7.28;;;;;;;;;;5056253;28;20156;-43
2021/03/17 08:29:37;;;;;;;16.02;7.25;;;;;;;;;;5060902;28;20025;-42
2021/03/17 08:32:03;;;;;;;16.15;8.20;;;;;;;;;;5060385;28;20068;-42
2021/03/17 08:34:30;;;;;;;15.95;7.57;;;;;;;;;;5057801;28;20024;-44
2021/03/17 08:37:06;;;;;;;15.68;7.25;;;;;;;;;;5062689;28;20052;-43
2021/03/17 08:39:32;;;;;;;13.35;7.57;;;;;;;;;;5065794;28;20116;-43
2021/03/17 08:42:05;;;;;;;13.93;7.40;;;;;;;;;;5067152;28;20486;-42
2021/03/17 08:44:40;;;;;;;15.65;7.63;;;;;;;;;;5068120;28;20028;-43
2021/03/17 08:47:12;;;;;;;15.75;7.45;;;;;;;;;;5064110;28;20028;-45
2021/03/17 08:49:38;;;;;;;16.80;8.25;;;;;;;;;;5068738;28;20036;-42
2021/03/17 08:52:15;;;;;;;17.13;8.85;;;;;;;;;;5066292;28;20558;-42
2021/03/17 08:54:45;;;;;;;21.73;8.90;;;;;;;;;;5060397;28;20036;-42
2021/03/17 08:57:12;;;;;;;16.80;8.98;;;;;;;;;;5060537;28;20020;-44
2021/03/17 08:59:38;;;;;;;19.13;8.77;;;;;;;;;;5059655;28;20037;-43
2021/03/17 09:02:04;;;;;;;13.88;8.10;;;;;;;;;;5062395;28;20028;-43
2021/03/17 09:04:50;;;;;;;15.18;8.30;;;;;;;;;;5068988;28;20032;-46
2021/03/17 09:07:17;;;;;;;19.08;9.27;;;;;;;;;;5058376;28;20040;-43
2021/03/17 09:09:59;;;;;;;19.00;9.13;;;;;;;;;;5056762;28;20029;-44
2021/03/17 09:12:25;;;;;;;16.98;8.52;;;;;;;;;;5058095;28;20036;-42
2021/03/17 09:14:51;;;;;;;17.30;8.73;;;;;;;;;;5058165;28;20052;-42
2021/03/17 09:17:19;;;;;;;15.52;8.02;;;;;;;;;;5071902;28;20610;-42
2021/03/17 09:19:57;;;;;;;17.13;7.88;;;;;;;;;;5069120;28;20361;-42
2021/03/17 09:22:35;;;;;;;15.75;8.43;;;;;;;;;;5055680;28;20515;-43
2021/03/17 09:25:11;;;;;;;19.38;9.23;;;;;;;;;;5064638;28;20037;-43
2021/03/17 09:27:44;;;;;;;17.77;8.95;;;;;;;;;;5070204;28;20143;-44
2021/03/17 09:30:10;;;;;;;16.15;9.20;;;;;;;;;;5067058;28;20032;-43
2021/03/17 09:32:36;;;;;;;16.75;8.68;;;;;;;;;;5066701;28;20047;-43
2021/03/17 09:35:02;;;;;;;17.45;8.20;;;;;;;;;;5072536;28;20083;-42
2021/03/17 09:37:28;;;;;;;13.85;7.50;;;;;;;;;;5053823;28;20049;-43
2021/03/17 09:39:54;;;;;;;19.05;8.73;;;;;;;;;;5058888;28;20472;-43
2021/03/17 09:42:20;;;;;;;18.50;8.50;;;;;;;;;;5066808;28;20028;-42
2021/03/17 09:44:46;;;;;;;15.65;8.32;;;;;;;;;;5061350;28;20044;-43
2021/03/17 09:47:12;;;;;;;15.07;8.05;;;;;;;;;;5062407;28;20445;-43
2021/03/17 09:49:38;;;;;;;13.73;8.13;;;;;;;;;;5058015;28;20025;-43
2021/03/17 09:52:05;;;;;;;12.75;7.88;;;;;;;;;;5053601;28;20024;-44
2021/03/17 09:54:32;;;;;;;15.73;8.25;;;;;;;;;;5058437;28;20108;-43
2021/03/17 09:57:02;;;;;;;17.27;7.75;;;;;;;;;;5061526;28;20032;-43
2021/03/17 09:59:40;;;;;;;14.82;7.32;;;;;;;;;;5058977;28;20035;-42
2021/03/17 10:02:09;;;;;;;13.82;8.20;;;;;;;;;;5061569;28;20115;-42
2021/03/17 10:04:38;;;;;;;14.40;7.50;;;;;;;;;;5057811;28;20021;-43
2021/03/17 10:07:06;;;;;;;12.18;7.43;;;;;;;;;;5054547;28;20048;-42
2021/03/17 10:09:33;;;;;;;13.45;6.80;;;;;;;;;;5055322;28;20028;-43
2021/03/17 10:12:01;;;;;;;15.20;7.50;;;;;;;;;;5068458;28;20032;-43
2021/03/17 10:14:27;;;;;;;11.13;7.03;;;;;;;;;;5058970;28;20035;-42
2021/03/17 10:16:54;;;;;;;11.43;6.85;;;;;;;;;;5052970;28;20112;-42
2021/03/17 10:19:20;;;;;;;11.98;6.80;;;;;;;;;;5053687;28;20442;-43
2021/03/17 10:21:48;;;;;;;12.20;7.25;;;;;;;;;;5060383;28;20025;-43
2021/03/17 10:24:15;;;;;;;13.38;7.15;;;;;;;;;;5069341;28;20021;-42
2021/03/17 10:26:41;;;;;;;12.77;7.15;;;;;;;;;;5056653;28;20052;-43
2021/03/17 10:29:08;;;;;;;13.52;7.07;;;;;;;;;;5053696;28;20041;-42
2021/03/17 10:31:34;;;;;;;13.98;6.60;;;;;;;;;;5063388;28;20031;-44
2021/03/17 10:34:01;;;;;;;10.20;5.75;;;;;;;;;;5060742;28;20037;-43
2021/03/17 10:36:27;;;;;;;9.38;5.45;;;;;;;;;;5059950;28;20090;-44
2021/03/17 10:38:54;;;;;;;11.32;6.28;;;;;;;;;;5058442;28;20481;-44
2021/03/17 10:41:38;;;;;;;10.82;6.32;;;;;;;;;;5070382;28;20029;-43
2021/03/17 10:44:11;;;;;;;10.25;6.32;;;;;;;;;;5055085;28;20031;-41
2021/03/17 10:46:55;;;;;;;9.97;5.47;;;;;;;;;;5057401;28;20029;-42
2021/03/17 10:49:21;;;;;;;9.25;5.78;;;;;;;;;;5054753;28;20267;-42
2021/03/17 10:51:51;;;;;;;9.50;5.20;;;;;;;;;;5060234;28;20133;-44
2021/03/17 10:54:27;;;;;;;7.90;4.85;;;;;;;;;;5054185;28;20091;-42
2021/03/17 10:56:52;;;;;;;10.77;5.85;;;;;;;;;;5061779;28;20037;-43
2021/03/17 10:59:32;;;;;;;10.25;5.60;;;;;;;;;;5058939;28;20036;-42
2021/03/17 11:02:14;;;;;;;9.00;5.45;;;;;;;;;;5055702;28;20465;-42
2021/03/17 11:05:00;;;;;;;11.88;5.28;;;;;;;;;;5051180;28;20330;-42
2021/03/17 11:07:26;;;;;;;10.57;5.70;;;;;;;;;;5058710;28;20050;-42
2021/03/17 11:09:52;;;;;;;10.30;5.47;;;;;;;;;;5056684;28;20112;-42
2021/03/17 11:12:18;;;;;;;7.35;4.53;;;;;;;;;;5052333;28;20113;-42
2021/03/17 11:14:44;;;;;;;7.47;4.45;;;;;;;;;;5057027;28;20444;-43
2021/03/17 11:17:10;;;;;;;8.93;4.22;;;;;;;;;;5061940;28;20024;-42
2021/03/17 11:19:36;;;;;;;8.85;4.47;;;;;;;;;;5073668;28;20121;-43
2021/03/17 11:22:02;;;;;;;7.15;4.40;;;;;;;;;;5070340;28;20473;-42
2021/03/17 11:24:28;;;;;;;6.72;4.30;;;;;;;;;;5059714;28;20033;-42
2021/03/17 11:26:54;;;;;;;6.90;4.28;;;;;;;;;;5064892;28;20031;-42
2021/03/17 11:29:24;;;;;;;6.57;4.38;;;;;;;;;;5059898;28;20021;-43
2021/03/17 11:31:52;;;;;;;6.18;4.00;;;;;;;;;;5054423;28;20029;-42
2021/03/17 11:34:19;;;;;;;5.85;3.80;;;;;;;;;;5056683;28;20064;-42
2021/03/17 11:36:45;;;;;;;6.68;4.07;;;;;;;;;;5063656;28;20360;-42
2021/03/17 11:39:13;;;;;;;6.63;4.13;;;;;;;;;;5069270;28;20635;-43
2021/03/17 11:41:40;;;;;;;6.10;3.83;;;;;;;;;;5080588;28;20371;-42
2021/03/17 11:44:06;;;;;;;5.72;3.58;;;;;;;;;;5071545;28;20127;-42
2021/03/17 11:46:32;;;;;;;6.10;3.63;;;;;;;;;;5074495;28;20032;-44
2021/03/17 11:48:59;;;;;;;5.03;3.65;;;;;;;;;;5070661;28;20112;-42
2021/03/17 11:51:25;;;;;;;5.07;2.97;;;;;;;;;;5078041;28;20061;-43
2021/03/17 11:53:51;;;;;;;7.20;3.38;;;;;;;;;;5077842;28;20036;-42
2021/03/17 11:56:17;;;;;;;5.00;3.08;;;;;;;;;;5075390;28;20426;-42
2021/03/17 11:58:43;;;;;;;4.72;3.15;;;;;;;;;;5074894;28;20024;-43
2021/03/17 12:01:09;;;;;;;4.88;3.30;;;;;;;;;;5067352;28;20027;-42
2021/03/17 12:03:36;;;;;;;6.22;3.63;;;;;;;;;;5073804;28;20028;-42
2021/03/17 12:06:02;;;;;;;8.70;3.60;;;;;;;;;;5077913;28;20406;-42
2021/03/17 12:08:28;;;;;;;4.88;3.30;;;;;;;;;;5069373;28;20068;-42
2021/03/17 12:10:55;;;;;;;5.40;3.30;;;;;;;;;;5061340;28;20036;-42
2021/03/17 12:13:22;;;;;;;4.70;3.28;;;;;;;;;;5060711;28;20052;-42
2021/03/17 12:15:48;;;;;;;5.70;3.05;;;;;;;;;;5066613;28;20043;-42
2021/03/17 12:18:14;;;;;;;7.45;2.50;;;;;;;;;;5062265;28;20352;-42
2021/03/17 12:20:40;;;;;;;4.95;3.05;;;;;;;;;;5061162;28;20025;-45
2021/03/17 12:23:07;;;;;;;4.50;2.85;;;;;;;;;;5067753;28;20031;-43
2021/03/17 12:25:33;;;;;;;3.70;2.40;;;;;;;;;;5060042;28;20438;-42
2021/03/17 12:27:59;;;;;;;4.38;2.65;;;;;;;;;;5064654;28;21736;-42
2021/03/17 12:30:25;;;;;;;5.20;2.40;;;;;;;;;;5069346;28;20028;-42
2021/03/17 12:32:52;;;;;;;4.30;2.42;;;;;;;;;;5060279;28;20029;-42
2021/03/17 12:35:19;;;;;;;5.03;2.65;;;;;;;;;;5054894;28;20037;-43
2021/03/17 12:37:47;;;;;;;4.97;2.08;;;;;;;;;;5059201;28;20017;-44
2021/03/17 12:40:14;;;;;;;4.80;2.53;;;;;;;;;;5062909;28;20025;-42
2021/03/17 12:42:40;;;;;;;5.70;2.40;;;;;;;;;;5062187;28;20017;-43
2021/03/17 12:45:07;;;;;;;2.78;1.70;;;;;;;;;;5060634;28;20468;-42
2021/03/17 12:47:34;;;;;;;4.43;2.35;;;;;;;;;;5060410;28;20111;-43
2021/03/17 12:50:00;;;;;;;2.75;1.75;;;;;;;;;;5072216;28;20045;-42
2021/03/17 12:52:26;;;;;;;6.03;2.30;;;;;;;;;;5054270;28;20036;-44
2021/03/17 12:54:52;;;;;;;3.90;2.35;;;;;;;;;;5057741;28;20041;-42
2021/03/17 12:57:18;;;;;;;4.22;2.50;;;;;;;;;;5059749;28;20040;-43
2021/03/17 12:59:44;;;;;;;2.75;2.00;;;;;;;;;;5058019;28;20136;-42
2021/03/17 13:02:11;;;;;;;4.60;2.80;;;;;;;;;;5059281;28;20033;-43
2021/03/17 13:04:37;;;;;;;4.15;2.80;;;;;;;;;;5054560;28;20025;-42
2021/03/17 13:07:03;;;;;;;4.43;2.75;;;;;;;;;;5063441;28;20116;-42
2021/03/17 13:09:29;;;;;;;6.20;3.00;;;;;;;;;;5059180;28;20044;-42
2021/03/17 13:11:55;;;;;;;4.22;2.65;;;;;;;;;;5062231;28;20040;-42
2021/03/17 13:14:24;;;;;;;5.00;2.70;;;;;;;;;;5060675;28;20483;-42
2021/03/17 13:16:50;;;;;;;5.22;3.03;;;;;;;;;;5072851;28;20055;-43
2021/03/17 13:19:16;;;;;;;3.17;2.30;;;;;;;;;;5061999;28;20052;-43
2021/03/17 13:21:42;;;;;;;3.60;2.20;;;;;;;;;;5064919;28;20067;-42
2021/03/17 13:24:08;;;;;;;4.15;2.67;;;;;;;;;;5062906;28;20380;-43
2021/03/17 13:26:35;;;;;;;3.28;2.58;;;;;;;;;;5062225;28;20045;-45
2021/03/17 13:29:01;;;;;;;4.72;2.58;;;;;;;;;;5075398;28;20037;-43
2021/03/17 13:31:27;;;;;;;2.00;1.25;;;;;;;;;;5068474;28;20051;-43
2021/03/17 13:33:53;;;;;;;0.50;0.30;;;;;;;;;;5071195;28;20029;-42
2021/03/17 13:36:19;;;;;;;0.20;0.20;;;;;;;;;;5076610;28;20065;-42
2021/03/17 13:38:45;;;;;;;0.30;0.30;;;;;;;;;;5074168;28;20021;-42
2021/03/17 13:41:11;;;;;;;0.20;0.20;;;;;;;;;;5062634;28;20036;-42
2021/03/17 13:43:37;;;;;;;1.08;0.40;;;;;;;;;;5070685;28;20032;-42
2021/03/17 13:46:03;;;;;;;1.45;0.63;;;;;;;;;;5065356;28;20040;-42
2021/03/17 13:48:29;;;;;;;0.50;0.40;;;;;;;;;;5072136;28;20559;-43
2021/03/17 13:50:55;;;;;;;0.70;0.60;;;;;;;;;;5067582;28;20165;-42
2021/03/17 13:53:21;;;;;;;0.90;0.40;;;;;;;;;;5074713;28;20032;-43
2021/03/17 13:55:47;;;;;;;0.63;0.40;;;;;;;;;;5064323;28;20028;-42
2021/03/17 13:58:14;;;;;;;0.55;0.40;;;;;;;;;;5073015;28;20020;-42
2021/03/17 14:00:40;;;;;;;1.15;0.40;;;;;;;;;;5074174;28;20077;-47
2021/03/17 14:03:06;;;;;;;0.75;0.60;;;;;;;;;;5071835;28;20032;-43
2021/03/17 14:05:32;;;;;;;1.48;0.70;;;;;;;;;;5073483;28;20048;-42
2021/03/17 14:07:58;;;;;;;0.93;0.70;;;;;;;;;;5071140;28;20895;-42
2021/03/17 14:10:25;;;;;;;0.95;0.60;;;;;;;;;;5074184;28;20548;-43
2021/03/17 14:12:51;;;;;;;1.52;0.70;;;;;;;;;;5068882;28;20043;-42
2021/03/17 14:15:19;;;;;;;2.92;1.00;;;;;;;;;;5060214;28;20108;-42
2021/03/17 14:17:45;;;;;;;0.82;0.65;;;;;;;;;;5062508;28;20375;-42
2021/03/17 14:20:12;;;;;;;1.05;0.80;;;;;;;;;;5062844;28;20107;-42
2021/03/17 14:22:39;;;;;;;2.97;0.93;;;;;;;;;;5070140;28;20025;-42
2021/03/17 14:25:06;;;;;;;0.80;0.70;;;;;;;;;;5071445;28;20047;-43
2021/03/17 14:27:32;;;;;;;0.93;0.70;;;;;;;;;;5074144;28;20461;-42
2021/03/17 14:29:58;;;;;;;2.70;0.75;;;;;;;;;;5059392;28;20032;-42
2021/03/17 14:32:24;;;;;;;1.13;0.70;;;;;;;;;;5055108;28;20025;-43
2021/03/17 14:34:50;;;;;;;1.25;0.65;;;;;;;;;;5060294;28;20061;-42
2021/03/17 14:37:16;;;;;;;2.40;0.77;;;;;;;;;;5059421;28;20144;-45
2021/03/17 14:39:42;;;;;;;0.50;0.50;;;;;;;;;;5066177;28;20364;-42